sensor_id;sensor_type;location;lat;lon;timestamp;P1;durP1;ratioP1;P2;durP2;ratioP2
74626;SDS011;63132;52.268;5.192;2024-02-23T00:00:07;14.10;;;2.40;;
74626;SDS011;63132;52.268;5.192;2024-02-23T00:02:32;12.80;;;2.50;;
74626;SDS011;63132;52.268;5.192;2024-02-23T00:04:58;13.57;;;2.67;;
74626;SDS011;63132;52.268;5.192;2024-02-23T00:07:23;21.87;;;2.97;;
74626;SDS011;63132;52.268;5.192;2024-02-23T00:09:48;19.73;;;3.13;;
74626;SDS011;63132;52.268;5.192;2024-02-23T00:12:14;11.05;;;2.40;;
74626;SDS011;63132;52.268;5.192;2024-02-23T00:14:39;16.35;;;2.42;;
74626;SDS011;63132;52.268;5.192;2024-02-23T00:17:04;18.83;;;2.38;;
74626;SDS011;63132;52.268;5.192;2024-02-23T00:19:30;11.70;;;2.50;;
74626;SDS011;63132;52.268;5.192;2024-02-23T00:21:56;18.90;;;2.75;;
74626;SDS011;63132;52.268;5.192;2024-02-23T00:24:24;15.15;;;2.10;;
74626;SDS011;63132;52.268;5.192;2024-02-23T00:26:49;15.77;;;2.53;;
74626;SDS011;63132;52.268;5.192;2024-02-23T00:29:16;17.50;;;3.35;;
74626;SDS011;63132;52.268;5.192;2024-02-23T00:31:42;16.30;;;2.65;;
74626;SDS011;63132;52.268;5.192;2024-02-23T00:34:10;17.75;;;2.50;;
74626;SDS011;63132;52.268;5.192;2024-02-23T00:36:38;12.18;;;2.33;;
74626;SDS011;63132;52.268;5.192;2024-02-23T00:39:07;14.88;;;2.92;;
74626;SDS011;63132;52.268;5.192;2024-02-23T00:41:33;17.50;;;2.25;;
74626;SDS011;63132;52.268;5.192;2024-02-23T00:43:58;13.43;;;2.00;;
74626;SDS011;63132;52.268;5.192;2024-02-23T00:46:24;18.70;;;3.40;;
74626;SDS011;63132;52.268;5.192;2024-02-23T00:48:49;7.90;;;1.80;;
74626;SDS011;63132;52.268;5.192;2024-02-23T00:51:15;17.67;;;2.30;;
74626;SDS011;63132;52.268;5.192;2024-02-23T00:53:40;15.40;;;2.60;;
74626;SDS011;63132;52.268;5.192;2024-02-23T00:56:05;14.23;;;1.93;;
74626;SDS011;63132;52.268;5.192;2024-02-23T00:58:31;20.20;;;2.40;;
74626;SDS011;63132;52.268;5.192;2024-02-23T01:00:56;25.13;;;2.50;;
74626;SDS011;63132;52.268;5.192;2024-02-23T01:03:21;10.70;;;2.43;;
74626;SDS011;63132;52.268;5.192;2024-02-23T01:05:47;20.38;;;2.45;;
74626;SDS011;63132;52.268;5.192;2024-02-23T01:08:13;17.80;;;2.47;;
74626;SDS011;63132;52.268;5.192;2024-02-23T01:10:38;19.60;;;2.03;;
74626;SDS011;63132;52.268;5.192;2024-02-23T01:13:03;15.80;;;3.63;;
74626;SDS011;63132;52.268;5.192;2024-02-23T01:15:30;22.35;;;3.28;;
74626;SDS011;63132;52.268;5.192;2024-02-23T01:17:55;11.90;;;2.17;;
74626;SDS011;63132;52.268;5.192;2024-02-23T01:20:21;15.75;;;2.70;;
74626;SDS011;63132;52.268;5.192;2024-02-23T01:22:46;17.27;;;2.40;;
74626;SDS011;63132;52.268;5.192;2024-02-23T01:25:12;17.88;;;2.28;;
74626;SDS011;63132;52.268;5.192;2024-02-23T01:27:37;16.40;;;2.00;;
74626;SDS011;63132;52.268;5.192;2024-02-23T01:30:02;15.10;;;2.80;;
74626;SDS011;63132;52.268;5.192;2024-02-23T01:32:28;7.22;;;2.00;;
74626;SDS011;63132;52.268;5.192;2024-02-23T01:34:54;12.53;;;1.97;;
74626;SDS011;63132;52.268;5.192;2024-02-23T01:37:19;18.43;;;2.70;;
74626;SDS011;63132;52.268;5.192;2024-02-23T01:39:44;16.07;;;2.67;;
74626;SDS011;63132;52.268;5.192;2024-02-23T01:42:10;10.77;;;2.10;;
74626;SDS011;63132;52.268;5.192;2024-02-23T01:44:35;9.68;;;2.58;;
74626;SDS011;63132;52.268;5.192;2024-02-23T01:47:00;16.30;;;2.30;;
74626;SDS011;63132;52.268;5.192;2024-02-23T01:49:25;7.33;;;1.60;;
74626;SDS011;63132;52.268;5.192;2024-02-23T01:51:55;17.02;;;1.98;;
74626;SDS011;63132;52.268;5.192;2024-02-23T01:54:22;16.83;;;1.90;;
74626;SDS011;63132;52.268;5.192;2024-02-23T01:56:47;7.13;;;1.88;;
74626;SDS011;63132;52.268;5.192;2024-02-23T01:59:13;9.77;;;1.83;;
74626;SDS011;63132;52.268;5.192;2024-02-23T02:01:38;7.43;;;1.65;;
74626;SDS011;63132;52.268;5.192;2024-02-23T02:04:04;15.73;;;2.03;;
74626;SDS011;63132;52.268;5.192;2024-02-23T02:06:29;11.03;;;1.93;;
74626;SDS011;63132;52.268;5.192;2024-02-23T02:08:54;9.13;;;1.70;;
74626;SDS011;63132;52.268;5.192;2024-02-23T02:11:20;13.38;;;1.65;;
74626;SDS011;63132;52.268;5.192;2024-02-23T02:13:45;10.03;;;1.97;;
74626;SDS011;63132;52.268;5.192;2024-02-23T02:16:11;7.00;;;1.33;;
74626;SDS011;63132;52.268;5.192;2024-02-23T02:18:36;10.23;;;2.03;;
74626;SDS011;63132;52.268;5.192;2024-02-23T02:21:02;9.17;;;1.27;;
74626;SDS011;63132;52.268;5.192;2024-02-23T02:23:28;13.18;;;2.25;;
74626;SDS011;63132;52.268;5.192;2024-02-23T02:25:54;11.15;;;2.17;;
74626;SDS011;63132;52.268;5.192;2024-02-23T02:28:19;5.95;;;1.20;;
74626;SDS011;63132;52.268;5.192;2024-02-23T02:30:45;7.53;;;1.40;;
74626;SDS011;63132;52.268;5.192;2024-02-23T02:33:11;12.67;;;1.77;;
74626;SDS011;63132;52.268;5.192;2024-02-23T02:38:02;10.90;;;1.60;;
74626;SDS011;63132;52.268;5.192;2024-02-23T02:40:27;8.33;;;1.53;;
74626;SDS011;63132;52.268;5.192;2024-02-23T02:42:52;11.40;;;2.27;;
74626;SDS011;63132;52.268;5.192;2024-02-23T02:45:17;9.77;;;2.10;;
74626;SDS011;63132;52.268;5.192;2024-02-23T02:47:43;9.38;;;1.73;;
74626;SDS011;63132;52.268;5.192;2024-02-23T02:50:09;13.60;;;1.90;;
74626;SDS011;63132;52.268;5.192;2024-02-23T02:52:34;14.30;;;1.90;;
74626;SDS011;63132;52.268;5.192;2024-02-23T02:54:59;14.77;;;2.10;;
74626;SDS011;63132;52.268;5.192;2024-02-23T02:57:25;12.33;;;2.10;;
74626;SDS011;63132;52.268;5.192;2024-02-23T02:59:50;20.13;;;2.57;;
74626;SDS011;63132;52.268;5.192;2024-02-23T03:02:15;8.20;;;1.90;;
74626;SDS011;63132;52.268;5.192;2024-02-23T03:04:49;14.40;;;2.07;;
74626;SDS011;63132;52.268;5.192;2024-02-23T03:07:16;14.07;;;2.10;;
74626;SDS011;63132;52.268;5.192;2024-02-23T03:12:07;12.30;;;2.22;;
74626;SDS011;63132;52.268;5.192;2024-02-23T03:14:32;14.68;;;2.03;;
74626;SDS011;63132;52.268;5.192;2024-02-23T03:16:58;11.35;;;1.67;;
74626;SDS011;63132;52.268;5.192;2024-02-23T03:19:24;10.63;;;1.60;;
74626;SDS011;63132;52.268;5.192;2024-02-23T03:21:50;14.32;;;1.98;;
74626;SDS011;63132;52.268;5.192;2024-02-23T03:24:16;10.90;;;1.60;;
74626;SDS011;63132;52.268;5.192;2024-02-23T03:26:42;13.00;;;1.80;;
74626;SDS011;63132;52.268;5.192;2024-02-23T03:29:07;13.48;;;1.92;;
74626;SDS011;63132;52.268;5.192;2024-02-23T03:33:59;15.88;;;1.90;;
74626;SDS011;63132;52.268;5.192;2024-02-23T03:36:24;13.63;;;1.63;;
74626;SDS011;63132;52.268;5.192;2024-02-23T03:38:49;12.83;;;2.00;;
74626;SDS011;63132;52.268;5.192;2024-02-23T03:41:15;21.83;;;2.37;;
74626;SDS011;63132;52.268;5.192;2024-02-23T03:43:40;11.80;;;2.33;;
74626;SDS011;63132;52.268;5.192;2024-02-23T03:46:05;17.57;;;2.30;;
74626;SDS011;63132;52.268;5.192;2024-02-23T03:48:31;14.80;;;2.17;;
74626;SDS011;63132;52.268;5.192;2024-02-23T03:53:22;15.73;;;2.17;;
74626;SDS011;63132;52.268;5.192;2024-02-23T03:55:48;11.67;;;2.00;;
74626;SDS011;63132;52.268;5.192;2024-02-23T03:58:13;13.70;;;2.43;;
74626;SDS011;63132;52.268;5.192;2024-02-23T04:00:38;16.93;;;2.73;;
74626;SDS011;63132;52.268;5.192;2024-02-23T04:03:03;17.07;;;2.83;;
74626;SDS011;63132;52.268;5.192;2024-02-23T04:05:29;10.25;;;2.28;;
74626;SDS011;63132;52.268;5.192;2024-02-23T04:07:54;7.73;;;1.90;;
74626;SDS011;63132;52.268;5.192;2024-02-23T04:10:19;11.97;;;2.27;;
74626;SDS011;63132;52.268;5.192;2024-02-23T04:12:48;9.80;;;2.10;;
74626;SDS011;63132;52.268;5.192;2024-02-23T04:15:13;15.23;;;2.38;;
74626;SDS011;63132;52.268;5.192;2024-02-23T04:17:38;4.32;;;1.60;;
74626;SDS011;63132;52.268;5.192;2024-02-23T04:20:07;12.80;;;2.33;;
74626;SDS011;63132;52.268;5.192;2024-02-23T04:22:34;25.48;;;4.72;;
74626;SDS011;63132;52.268;5.192;2024-02-23T04:27:26;14.17;;;2.27;;
74626;SDS011;63132;52.268;5.192;2024-02-23T04:29:51;11.37;;;2.60;;
74626;SDS011;63132;52.268;5.192;2024-02-23T04:32:16;15.07;;;2.80;;
74626;SDS011;63132;52.268;5.192;2024-02-23T04:34:42;11.77;;;2.60;;
74626;SDS011;63132;52.268;5.192;2024-02-23T04:37:07;11.80;;;2.33;;
74626;SDS011;63132;52.268;5.192;2024-02-23T04:39:32;14.93;;;2.67;;
74626;SDS011;63132;52.268;5.192;2024-02-23T04:41:58;14.33;;;2.77;;
74626;SDS011;63132;52.268;5.192;2024-02-23T04:44:23;14.73;;;2.73;;
74626;SDS011;63132;52.268;5.192;2024-02-23T04:46:49;12.15;;;2.30;;
74626;SDS011;63132;52.268;5.192;2024-02-23T04:49:14;14.60;;;3.15;;
74626;SDS011;63132;52.268;5.192;2024-02-23T04:51:39;10.90;;;2.77;;
74626;SDS011;63132;52.268;5.192;2024-02-23T04:54:05;16.53;;;2.63;;
74626;SDS011;63132;52.268;5.192;2024-02-23T04:56:31;15.95;;;5.05;;
74626;SDS011;63132;52.268;5.192;2024-02-23T04:58:56;14.30;;;2.57;;
74626;SDS011;63132;52.268;5.192;2024-02-23T05:01:22;16.25;;;3.47;;
74626;SDS011;63132;52.268;5.192;2024-02-23T05:03:47;13.70;;;2.63;;
74626;SDS011;63132;52.268;5.192;2024-02-23T05:06:13;10.87;;;3.40;;
74626;SDS011;63132;52.268;5.192;2024-02-23T05:08:38;10.93;;;3.20;;
74626;SDS011;63132;52.268;5.192;2024-02-23T05:11:03;14.30;;;3.30;;
74626;SDS011;63132;52.268;5.192;2024-02-23T05:13:29;18.35;;;3.15;;
74626;SDS011;63132;52.268;5.192;2024-02-23T05:15:55;12.70;;;3.28;;
74626;SDS011;63132;52.268;5.192;2024-02-23T05:20:46;20.90;;;3.60;;
74626;SDS011;63132;52.268;5.192;2024-02-23T05:23:11;13.43;;;3.50;;
74626;SDS011;63132;52.268;5.192;2024-02-23T05:25:36;15.73;;;3.95;;
74626;SDS011;63132;52.268;5.192;2024-02-23T05:28:02;16.37;;;3.97;;
74626;SDS011;63132;52.268;5.192;2024-02-23T05:30:27;13.60;;;3.58;;
74626;SDS011;63132;52.268;5.192;2024-02-23T05:32:56;13.90;;;3.58;;
74626;SDS011;63132;52.268;5.192;2024-02-23T05:35:22;13.80;;;3.42;;
74626;SDS011;63132;52.268;5.192;2024-02-23T05:37:47;9.15;;;4.32;;
74626;SDS011;63132;52.268;5.192;2024-02-23T05:40:13;13.65;;;3.75;;
74626;SDS011;63132;52.268;5.192;2024-02-23T05:42:38;7.30;;;3.40;;
74626;SDS011;63132;52.268;5.192;2024-02-23T05:45:04;11.77;;;3.83;;
74626;SDS011;63132;52.268;5.192;2024-02-23T05:47:33;11.02;;;4.07;;
74626;SDS011;63132;52.268;5.192;2024-02-23T05:49:59;14.52;;;3.15;;
74626;SDS011;63132;52.268;5.192;2024-02-23T05:52:24;11.30;;;5.07;;
74626;SDS011;63132;52.268;5.192;2024-02-23T05:54:49;13.40;;;3.30;;
74626;SDS011;63132;52.268;5.192;2024-02-23T05:57:16;13.45;;;3.97;;
74626;SDS011;63132;52.268;5.192;2024-02-23T05:59:42;17.80;;;4.00;;
74626;SDS011;63132;52.268;5.192;2024-02-23T06:02:07;11.83;;;4.20;;
74626;SDS011;63132;52.268;5.192;2024-02-23T06:04:33;12.77;;;4.30;;
74626;SDS011;63132;52.268;5.192;2024-02-23T06:06:58;17.60;;;4.47;;
74626;SDS011;63132;52.268;5.192;2024-02-23T06:09:24;17.70;;;4.73;;
74626;SDS011;63132;52.268;5.192;2024-02-23T06:11:49;14.83;;;5.33;;
74626;SDS011;63132;52.268;5.192;2024-02-23T06:14:14;15.00;;;5.47;;
74626;SDS011;63132;52.268;5.192;2024-02-23T06:16:39;13.48;;;5.30;;
74626;SDS011;63132;52.268;5.192;2024-02-23T06:19:05;11.57;;;5.13;;
74626;SDS011;63132;52.268;5.192;2024-02-23T06:21:31;11.93;;;4.82;;
74626;SDS011;63132;52.268;5.192;2024-02-23T06:26:22;15.97;;;5.13;;
74626;SDS011;63132;52.268;5.192;2024-02-23T06:28:47;13.30;;;4.93;;
74626;SDS011;63132;52.268;5.192;2024-02-23T06:31:13;13.55;;;5.07;;
74626;SDS011;63132;52.268;5.192;2024-02-23T06:33:39;15.25;;;5.15;;
74626;SDS011;63132;52.268;5.192;2024-02-23T06:36:05;11.73;;;4.53;;
74626;SDS011;63132;52.268;5.192;2024-02-23T06:38:31;14.85;;;4.80;;
74626;SDS011;63132;52.268;5.192;2024-02-23T06:40:57;13.98;;;4.78;;
74626;SDS011;63132;52.268;5.192;2024-02-23T06:43:22;14.57;;;4.18;;
74626;SDS011;63132;52.268;5.192;2024-02-23T06:45:48;15.23;;;4.47;;
74626;SDS011;63132;52.268;5.192;2024-02-23T06:48:13;9.97;;;4.77;;
74626;SDS011;63132;52.268;5.192;2024-02-23T06:50:38;9.33;;;4.53;;
74626;SDS011;63132;52.268;5.192;2024-02-23T06:53:03;12.93;;;4.20;;
74626;SDS011;63132;52.268;5.192;2024-02-23T06:55:30;12.88;;;4.30;;
74626;SDS011;63132;52.268;5.192;2024-02-23T06:57:55;9.10;;;4.47;;
74626;SDS011;63132;52.268;5.192;2024-02-23T07:00:21;8.80;;;3.83;;
74626;SDS011;63132;52.268;5.192;2024-02-23T07:02:46;12.25;;;3.97;;
74626;SDS011;63132;52.268;5.192;2024-02-23T07:05:12;13.10;;;5.15;;
74626;SDS011;63132;52.268;5.192;2024-02-23T07:07:39;9.02;;;3.63;;
74626;SDS011;63132;52.268;5.192;2024-02-23T07:10:05;11.57;;;3.70;;
74626;SDS011;63132;52.268;5.192;2024-02-23T07:12:31;6.22;;;2.90;;
74626;SDS011;63132;52.268;5.192;2024-02-23T07:14:57;12.77;;;3.40;;
74626;SDS011;63132;52.268;5.192;2024-02-23T07:17:22;7.90;;;3.67;;
74626;SDS011;63132;52.268;5.192;2024-02-23T07:19:48;11.20;;;2.95;;
74626;SDS011;63132;52.268;5.192;2024-02-23T07:22:13;7.95;;;3.20;;
74626;SDS011;63132;52.268;5.192;2024-02-23T07:24:41;9.65;;;2.97;;
74626;SDS011;63132;52.268;5.192;2024-02-23T07:27:07;10.93;;;3.20;;
74626;SDS011;63132;52.268;5.192;2024-02-23T07:29:32;8.13;;;2.97;;
74626;SDS011;63132;52.268;5.192;2024-02-23T07:31:58;12.07;;;3.60;;
74626;SDS011;63132;52.268;5.192;2024-02-23T07:34:23;6.83;;;2.60;;
74626;SDS011;63132;52.268;5.192;2024-02-23T07:36:51;12.85;;;2.97;;
74626;SDS011;63132;52.268;5.192;2024-02-23T07:39:17;13.15;;;4.05;;
74626;SDS011;63132;52.268;5.192;2024-02-23T07:41:42;10.60;;;3.20;;
74626;SDS011;63132;52.268;5.192;2024-02-23T07:44:08;6.63;;;2.30;;
74626;SDS011;63132;52.268;5.192;2024-02-23T07:46:33;12.90;;;2.60;;
74626;SDS011;63132;52.268;5.192;2024-02-23T07:48:58;7.03;;;2.57;;
74626;SDS011;63132;52.268;5.192;2024-02-23T07:51:24;11.53;;;2.27;;
74626;SDS011;63132;52.268;5.192;2024-02-23T07:53:49;13.80;;;2.33;;
74626;SDS011;63132;52.268;5.192;2024-02-23T07:56:14;7.83;;;2.20;;
74626;SDS011;63132;52.268;5.192;2024-02-23T07:58:40;6.20;;;1.70;;
74626;SDS011;63132;52.268;5.192;2024-02-23T08:01:05;10.63;;;2.03;;
74626;SDS011;63132;52.268;5.192;2024-02-23T08:03:30;18.20;;;2.57;;
74626;SDS011;63132;52.268;5.192;2024-02-23T08:05:56;7.05;;;1.63;;
74626;SDS011;63132;52.268;5.192;2024-02-23T08:08:21;11.53;;;1.97;;
74626;SDS011;63132;52.268;5.192;2024-02-23T08:10:48;6.88;;;2.13;;
74626;SDS011;63132;52.268;5.192;2024-02-23T08:13:14;10.77;;;1.90;;
74626;SDS011;63132;52.268;5.192;2024-02-23T08:15:40;10.02;;;1.50;;
74626;SDS011;63132;52.268;5.192;2024-02-23T08:18:05;12.03;;;2.83;;
74626;SDS011;63132;52.268;5.192;2024-02-23T08:20:31;11.05;;;2.00;;
74626;SDS011;63132;52.268;5.192;2024-02-23T08:22:56;9.43;;;2.15;;
74626;SDS011;63132;52.268;5.192;2024-02-23T08:25:21;10.20;;;1.67;;
74626;SDS011;63132;52.268;5.192;2024-02-23T08:27:46;6.37;;;1.63;;
74626;SDS011;63132;52.268;5.192;2024-02-23T08:30:13;5.25;;;1.48;;
74626;SDS011;63132;52.268;5.192;2024-02-23T08:32:38;8.25;;;1.33;;
74626;SDS011;63132;52.268;5.192;2024-02-23T08:35:04;7.37;;;1.63;;
74626;SDS011;63132;52.268;5.192;2024-02-23T08:37:29;7.28;;;1.83;;
74626;SDS011;63132;52.268;5.192;2024-02-23T08:39:55;9.27;;;1.80;;
74626;SDS011;63132;52.268;5.192;2024-02-23T08:42:21;16.20;;;2.30;;
74626;SDS011;63132;52.268;5.192;2024-02-23T08:44:46;9.43;;;1.83;;
74626;SDS011;63132;52.268;5.192;2024-02-23T08:47:12;8.60;;;2.00;;
74626;SDS011;63132;52.268;5.192;2024-02-23T08:49:37;12.23;;;2.23;;
74626;SDS011;63132;52.268;5.192;2024-02-23T08:52:02;7.90;;;2.57;;
74626;SDS011;63132;52.268;5.192;2024-02-23T08:54:29;9.48;;;2.30;;
74626;SDS011;63132;52.268;5.192;2024-02-23T08:56:54;5.70;;;2.03;;
74626;SDS011;63132;52.268;5.192;2024-02-23T08:59:20;11.63;;;2.40;;
74626;SDS011;63132;52.268;5.192;2024-02-23T09:01:45;8.70;;;2.07;;
74626;SDS011;63132;52.268;5.192;2024-02-23T09:04:12;5.97;;;1.83;;
74626;SDS011;63132;52.268;5.192;2024-02-23T09:06:38;7.03;;;2.35;;
74626;SDS011;63132;52.268;5.192;2024-02-23T09:09:03;10.90;;;1.87;;
74626;SDS011;63132;52.268;5.192;2024-02-23T09:11:29;13.65;;;2.78;;
74626;SDS011;63132;52.268;5.192;2024-02-23T09:13:54;10.27;;;2.57;;
74626;SDS011;63132;52.268;5.192;2024-02-23T09:16:20;11.83;;;3.37;;
74626;SDS011;63132;52.268;5.192;2024-02-23T09:18:47;9.75;;;2.03;;
74626;SDS011;63132;52.268;5.192;2024-02-23T09:21:12;12.63;;;2.37;;
74626;SDS011;63132;52.268;5.192;2024-02-23T09:23:39;12.45;;;2.20;;
74626;SDS011;63132;52.268;5.192;2024-02-23T09:26:08;6.10;;;2.30;;
74626;SDS011;63132;52.268;5.192;2024-02-23T09:28:36;8.27;;;2.45;;
74626;SDS011;63132;52.268;5.192;2024-02-23T09:31:01;8.20;;;2.10;;
74626;SDS011;63132;52.268;5.192;2024-02-23T09:33:28;5.78;;;2.00;;
74626;SDS011;63132;52.268;5.192;2024-02-23T09:35:53;10.93;;;2.37;;
74626;SDS011;63132;52.268;5.192;2024-02-23T09:38:18;12.23;;;2.70;;
74626;SDS011;63132;52.268;5.192;2024-02-23T09:40:44;8.15;;;2.47;;
74626;SDS011;63132;52.268;5.192;2024-02-23T09:43:10;4.43;;;2.15;;
74626;SDS011;63132;52.268;5.192;2024-02-23T09:45:37;8.70;;;2.90;;
74626;SDS011;63132;52.268;5.192;2024-02-23T09:48:03;15.10;;;2.70;;
74626;SDS011;63132;52.268;5.192;2024-02-23T09:50:29;7.93;;;2.72;;
74626;SDS011;63132;52.268;5.192;2024-02-23T09:52:55;9.43;;;2.22;;
74626;SDS011;63132;52.268;5.192;2024-02-23T09:55:23;8.52;;;2.53;;
74626;SDS011;63132;52.268;5.192;2024-02-23T09:57:49;8.77;;;2.10;;
74626;SDS011;63132;52.268;5.192;2024-02-23T10:00:19;5.90;;;2.40;;
74626;SDS011;63132;52.268;5.192;2024-02-23T10:02:45;4.22;;;1.85;;
74626;SDS011;63132;52.268;5.192;2024-02-23T10:05:11;8.95;;;2.53;;
74626;SDS011;63132;52.268;5.192;2024-02-23T10:07:38;7.65;;;2.20;;
74626;SDS011;63132;52.268;5.192;2024-02-23T10:10:07;9.63;;;1.90;;
74626;SDS011;63132;52.268;5.192;2024-02-23T10:12:34;7.80;;;2.00;;
74626;SDS011;63132;52.268;5.192;2024-02-23T10:15:00;7.53;;;2.30;;
74626;SDS011;63132;52.268;5.192;2024-02-23T10:17:28;8.88;;;3.17;;
74626;SDS011;63132;52.268;5.192;2024-02-23T10:19:54;13.48;;;2.00;;
74626;SDS011;63132;52.268;5.192;2024-02-23T10:22:20;6.93;;;2.00;;
74626;SDS011;63132;52.268;5.192;2024-02-23T10:24:46;8.15;;;2.30;;
74626;SDS011;63132;52.268;5.192;2024-02-23T10:27:11;11.40;;;3.80;;
74626;SDS011;63132;52.268;5.192;2024-02-23T10:29:37;7.60;;;1.88;;
74626;SDS011;63132;52.268;5.192;2024-02-23T10:32:02;10.70;;;2.03;;
74626;SDS011;63132;52.268;5.192;2024-02-23T10:34:30;6.45;;;2.08;;
74626;SDS011;63132;52.268;5.192;2024-02-23T10:36:56;8.20;;;2.60;;
74626;SDS011;63132;52.268;5.192;2024-02-23T10:39:21;10.23;;;1.90;;
74626;SDS011;63132;52.268;5.192;2024-02-23T10:42:00;8.10;;;2.45;;
74626;SDS011;63132;52.268;5.192;2024-02-23T10:44:28;5.20;;;2.38;;
74626;SDS011;63132;52.268;5.192;2024-02-23T10:46:54;9.27;;;2.28;;
74626;SDS011;63132;52.268;5.192;2024-02-23T10:49:20;15.25;;;2.88;;
74626;SDS011;63132;52.268;5.192;2024-02-23T10:51:51;8.85;;;3.88;;
74626;SDS011;63132;52.268;5.192;2024-02-23T10:54:17;7.07;;;2.25;;
74626;SDS011;63132;52.268;5.192;2024-02-23T10:56:46;6.85;;;2.15;;
74626;SDS011;63132;52.268;5.192;2024-02-23T10:59:12;8.30;;;2.35;;
74626;SDS011;63132;52.268;5.192;2024-02-23T11:01:38;6.97;;;2.40;;
74626;SDS011;63132;52.268;5.192;2024-02-23T11:04:05;6.57;;;2.67;;
74626;SDS011;63132;52.268;5.192;2024-02-23T11:06:33;7.07;;;2.35;;
74626;SDS011;63132;52.268;5.192;2024-02-23T11:09:05;6.45;;;1.73;;
74626;SDS011;63132;52.268;5.192;2024-02-23T11:11:38;4.72;;;1.85;;
74626;SDS011;63132;52.268;5.192;2024-02-23T11:14:06;4.70;;;2.08;;
74626;SDS011;63132;52.268;5.192;2024-02-23T11:16:33;5.40;;;1.90;;
74626;SDS011;63132;52.268;5.192;2024-02-23T11:19:04;6.28;;;2.10;;
74626;SDS011;63132;52.268;5.192;2024-02-23T11:21:34;8.85;;;2.30;;
74626;SDS011;63132;52.268;5.192;2024-02-23T11:24:02;6.57;;;2.13;;
74626;SDS011;63132;52.268;5.192;2024-02-23T11:26:28;6.53;;;1.95;;
74626;SDS011;63132;52.268;5.192;2024-02-23T11:28:54;8.33;;;2.03;;
74626;SDS011;63132;52.268;5.192;2024-02-23T11:31:20;9.87;;;2.30;;
74626;SDS011;63132;52.268;5.192;2024-02-23T11:33:50;9.73;;;2.00;;
74626;SDS011;63132;52.268;5.192;2024-02-23T11:38:51;7.88;;;2.00;;
74626;SDS011;63132;52.268;5.192;2024-02-23T11:41:18;7.90;;;2.35;;
74626;SDS011;63132;52.268;5.192;2024-02-23T11:43:46;6.97;;;2.00;;
74626;SDS011;63132;52.268;5.192;2024-02-23T11:46:12;6.80;;;2.17;;
74626;SDS011;63132;52.268;5.192;2024-02-23T11:48:37;8.73;;;1.83;;
74626;SDS011;63132;52.268;5.192;2024-02-23T11:51:03;13.17;;;3.57;;
74626;SDS011;63132;52.268;5.192;2024-02-23T11:53:28;9.85;;;2.10;;
74626;SDS011;63132;52.268;5.192;2024-02-23T11:55:54;4.63;;;1.88;;
74626;SDS011;63132;52.268;5.192;2024-02-23T11:58:20;6.68;;;2.20;;
74626;SDS011;63132;52.268;5.192;2024-02-23T12:00:45;8.35;;;2.30;;
74626;SDS011;63132;52.268;5.192;2024-02-23T12:03:11;9.87;;;2.67;;
74626;SDS011;63132;52.268;5.192;2024-02-23T12:05:37;6.85;;;2.08;;
74626;SDS011;63132;52.268;5.192;2024-02-23T12:08:02;7.07;;;2.00;;
74626;SDS011;63132;52.268;5.192;2024-02-23T12:10:29;7.25;;;1.63;;
74626;SDS011;63132;52.268;5.192;2024-02-23T12:12:55;6.53;;;1.90;;
74626;SDS011;63132;52.268;5.192;2024-02-23T12:15:20;5.13;;;1.75;;
74626;SDS011;63132;52.268;5.192;2024-02-23T12:17:46;10.90;;;1.70;;
74626;SDS011;63132;52.268;5.192;2024-02-23T12:20:15;9.30;;;2.25;;
74626;SDS011;63132;52.268;5.192;2024-02-23T12:22:41;6.22;;;1.58;;
74626;SDS011;63132;52.268;5.192;2024-02-23T12:25:07;7.57;;;2.13;;
74626;SDS011;63132;52.268;5.192;2024-02-23T12:27:32;8.57;;;1.70;;
74626;SDS011;63132;52.268;5.192;2024-02-23T12:29:58;7.70;;;1.92;;
74626;SDS011;63132;52.268;5.192;2024-02-23T12:34:50;6.63;;;1.60;;
74626;SDS011;63132;52.268;5.192;2024-02-23T12:37:15;4.60;;;1.60;;
74626;SDS011;63132;52.268;5.192;2024-02-23T12:39:42;6.72;;;1.50;;
74626;SDS011;63132;52.268;5.192;2024-02-23T12:42:07;6.65;;;1.60;;
74626;SDS011;63132;52.268;5.192;2024-02-23T12:44:33;6.90;;;1.38;;
74626;SDS011;63132;52.268;5.192;2024-02-23T12:46:58;7.80;;;1.50;;
74626;SDS011;63132;52.268;5.192;2024-02-23T12:49:23;9.40;;;1.40;;
74626;SDS011;63132;52.268;5.192;2024-02-23T12:51:49;8.85;;;1.50;;
74626;SDS011;63132;52.268;5.192;2024-02-23T12:54:14;7.53;;;1.30;;
74626;SDS011;63132;52.268;5.192;2024-02-23T12:56:39;6.35;;;1.40;;
74626;SDS011;63132;52.268;5.192;2024-02-23T12:59:05;7.95;;;1.30;;
74626;SDS011;63132;52.268;5.192;2024-02-23T13:01:30;7.95;;;1.38;;
74626;SDS011;63132;52.268;5.192;2024-02-23T13:03:59;11.20;;;2.13;;
74626;SDS011;63132;52.268;5.192;2024-02-23T13:06:24;5.80;;;1.20;;
74626;SDS011;63132;52.268;5.192;2024-02-23T13:08:50;7.38;;;1.23;;
74626;SDS011;63132;52.268;5.192;2024-02-23T13:11:15;4.82;;;1.10;;
74626;SDS011;63132;52.268;5.192;2024-02-23T13:13:42;5.13;;;1.00;;
74626;SDS011;63132;52.268;5.192;2024-02-23T13:18:33;8.45;;;1.27;;
74626;SDS011;63132;52.268;5.192;2024-02-23T13:20:59;6.40;;;1.40;;
74626;SDS011;63132;52.268;5.192;2024-02-23T13:23:24;6.38;;;1.40;;
74626;SDS011;63132;52.268;5.192;2024-02-23T13:25:49;9.43;;;1.40;;
74626;SDS011;63132;52.268;5.192;2024-02-23T13:28:15;5.03;;;1.20;;
74626;SDS011;63132;52.268;5.192;2024-02-23T13:30:40;3.28;;;1.20;;
74626;SDS011;63132;52.268;5.192;2024-02-23T13:33:06;9.60;;;2.10;;
74626;SDS011;63132;52.268;5.192;2024-02-23T13:35:33;4.78;;;1.40;;
74626;SDS011;63132;52.268;5.192;2024-02-23T13:37:59;2.20;;;0.93;;
74626;SDS011;63132;52.268;5.192;2024-02-23T13:40:24;6.45;;;1.30;;
74626;SDS011;63132;52.268;5.192;2024-02-23T13:42:50;9.10;;;1.52;;
74626;SDS011;63132;52.268;5.192;2024-02-23T13:45:17;6.03;;;1.48;;
74626;SDS011;63132;52.268;5.192;2024-02-23T13:47:43;8.50;;;1.33;;
74626;SDS011;63132;52.268;5.192;2024-02-23T13:50:19;6.72;;;1.40;;
74626;SDS011;63132;52.268;5.192;2024-02-23T13:52:45;4.93;;;1.13;;
74626;SDS011;63132;52.268;5.192;2024-02-23T13:55:10;7.60;;;2.40;;
74626;SDS011;63132;52.268;5.192;2024-02-23T13:57:35;5.65;;;1.50;;
74626;SDS011;63132;52.268;5.192;2024-02-23T14:00:01;8.37;;;1.70;;
74626;SDS011;63132;52.268;5.192;2024-02-23T14:02:27;5.05;;;1.25;;
74626;SDS011;63132;52.268;5.192;2024-02-23T14:04:55;6.32;;;1.30;;
74626;SDS011;63132;52.268;5.192;2024-02-23T14:07:25;2.20;;;1.00;;
74626;SDS011;63132;52.268;5.192;2024-02-23T14:09:51;8.13;;;1.10;;
74626;SDS011;63132;52.268;5.192;2024-02-23T14:12:16;11.40;;;1.17;;
74626;SDS011;63132;52.268;5.192;2024-02-23T14:14:42;5.70;;;1.08;;
74626;SDS011;63132;52.268;5.192;2024-02-23T14:17:07;3.50;;;1.20;;
74626;SDS011;63132;52.268;5.192;2024-02-23T14:19:33;2.30;;;0.93;;
74626;SDS011;63132;52.268;5.192;2024-02-23T14:21:58;4.87;;;1.10;;
74626;SDS011;63132;52.268;5.192;2024-02-23T14:24:24;6.97;;;1.02;;
74626;SDS011;63132;52.268;5.192;2024-02-23T14:26:49;2.37;;;0.80;;
74626;SDS011;63132;52.268;5.192;2024-02-23T14:29:14;4.07;;;0.80;;
74626;SDS011;63132;52.268;5.192;2024-02-23T14:31:39;5.43;;;0.70;;
74626;SDS011;63132;52.268;5.192;2024-02-23T14:34:05;3.97;;;0.80;;
74626;SDS011;63132;52.268;5.192;2024-02-23T14:36:30;5.37;;;1.23;;
74626;SDS011;63132;52.268;5.192;2024-02-23T14:38:58;1.88;;;0.77;;
74626;SDS011;63132;52.268;5.192;2024-02-23T14:41:24;6.27;;;1.37;;
74626;SDS011;63132;52.268;5.192;2024-02-23T14:43:49;4.63;;;1.00;;
74626;SDS011;63132;52.268;5.192;2024-02-23T14:46:14;2.42;;;0.90;;
74626;SDS011;63132;52.268;5.192;2024-02-23T14:48:40;3.97;;;1.40;;
74626;SDS011;63132;52.268;5.192;2024-02-23T14:51:05;5.97;;;1.08;;
74626;SDS011;63132;52.268;5.192;2024-02-23T14:53:31;2.27;;;0.83;;
74626;SDS011;63132;52.268;5.192;2024-02-23T14:55:56;3.80;;;1.30;;